Terminal Aerodrome Forecast
Issued by NWS Cleveland, OH

Home | Current Version | Previous Version | Graphics & Text | Print | Product List | Glossary On
Versions: 1 2 3 4 5 6 7 8 9 10 11 12 13 14 15 16 17 18 19 20 21 22 23 24 25 26 27 28 29
000
FTUS41 KCLE 250800 AAA
TAFMFD
TAF AMD
KMFD 250843Z 2509/2606 26008KT 6SM BR OVC012
     FM251300 25006KT 3SM -SN OVC012
     FM251600 VRB04KT 1 1/2SM -SN BR OVC008
     FM251900 04008KT 1SM -SN BR OVC006
      TEMPO 2519/2523 1/2SM SN VV003=

USA.gov is the U.S. government's official web portal to all federal, state and local government web resources and services.